Time;durP1;ratioP1;P1;durP2;ratioP2;P2;SDS_P1;SDS_P2;PMS_P1;PMS_P2;Temp;Humidity;BMP_temperature;BMP_pressure;BME280_temperature;BME280_humidity;BME280_pressure;Samples;Min_cycle;Max_cycle;Signal;HPM_P1;HPM_P2
2022/03/15 00:00:58;;;;;;;15.80;5.72;;;;;;;;;;5034661;28;20051;-79
2022/03/15 00:03:27;;;;;;;21.30;5.97;;;;;;;;;;5037550;28;20083;-79
2022/03/15 00:05:54;;;;;;;13.70;6.57;;;;;;;;;;5036384;28;20045;-79
2022/03/15 00:08:22;;;;;;;14.52;5.32;;;;;;;;;;5036785;28;20192;-79
2022/03/15 00:10:54;;;;;;;12.60;5.57;;;;;;;;;;5037563;28;20083;-78
2022/03/15 00:13:22;;;;;;;14.13;6.60;;;;;;;;;;5037085;28;20140;-79
2022/03/15 00:15:50;;;;;;;16.23;5.90;;;;;;;;;;5036338;28;20136;-80
2022/03/15 00:18:20;;;;;;;13.25;5.03;;;;;;;;;;5039677;28;20057;-81
2022/03/15 00:20:49;;;;;;;11.23;5.00;;;;;;;;;;5035088;28;20080;-80
2022/03/15 00:23:17;;;;;;;15.43;6.03;;;;;;;;;;5035584;28;20125;-79
2022/03/15 00:25:44;;;;;;;15.63;5.32;;;;;;;;;;5037863;28;20040;-79
2022/03/15 00:28:12;;;;;;;19.17;5.35;;;;;;;;;;5034010;28;20049;-79
2022/03/15 00:30:39;;;;;;;17.15;6.40;;;;;;;;;;5040373;28;20079;-78
2022/03/15 00:33:08;;;;;;;12.50;5.28;;;;;;;;;;5040138;28;20048;-78
2022/03/15 00:35:36;;;;;;;13.85;5.53;;;;;;;;;;5037934;28;20099;-80
2022/03/15 00:38:05;;;;;;;22.27;7.82;;;;;;;;;;5038089;28;20092;-80
2022/03/15 00:40:32;;;;;;;16.40;5.47;;;;;;;;;;5038869;28;20080;-79
2022/03/15 00:43:00;;;;;;;9.82;5.00;;;;;;;;;;5035689;28;20334;-80
2022/03/15 00:45:28;;;;;;;12.85;4.68;;;;;;;;;;5038935;28;20508;-80
2022/03/15 00:47:57;;;;;;;10.60;4.75;;;;;;;;;;5036056;28;20122;-78
2022/03/15 00:50:28;;;;;;;18.38;5.18;;;;;;;;;;5036834;28;20057;-79
2022/03/15 00:52:56;;;;;;;14.73;5.72;;;;;;;;;;5033382;28;20041;-80
2022/03/15 00:55:25;;;;;;;14.00;5.93;;;;;;;;;;5035300;28;20091;-79
2022/03/15 00:57:53;;;;;;;11.70;4.85;;;;;;;;;;5036065;28;20071;-81
2022/03/15 01:00:21;;;;;;;20.00;5.85;;;;;;;;;;5037147;28;20052;-80
2022/03/15 01:02:49;;;;;;;14.68;6.45;;;;;;;;;;5040678;28;20132;-80
2022/03/15 01:05:17;;;;;;;14.05;6.25;;;;;;;;;;5035985;28;20480;-80
2022/03/15 01:07:45;;;;;;;15.38;6.28;;;;;;;;;;5038548;28;20052;-80
2022/03/15 01:10:12;;;;;;;20.05;6.43;;;;;;;;;;5033832;28;20049;-80
2022/03/15 01:12:42;;;;;;;15.82;6.20;;;;;;;;;;5038101;28;20477;-80
2022/03/15 01:15:10;;;;;;;13.45;6.30;;;;;;;;;;5036860;28;20379;-80
2022/03/15 01:17:38;;;;;;;20.27;6.40;;;;;;;;;;5037471;28;20173;-79
2022/03/15 01:20:07;;;;;;;19.02;7.30;;;;;;;;;;5038593;28;20358;-80
2022/03/15 01:22:35;;;;;;;16.50;6.65;;;;;;;;;;5034047;28;20484;-80
2022/03/15 01:25:03;;;;;;;15.27;6.18;;;;;;;;;;5035765;28;20574;-80
2022/03/15 01:27:30;;;;;;;18.52;7.55;;;;;;;;;;5032482;28;20278;-80
2022/03/15 01:29:59;;;;;;;19.60;6.80;;;;;;;;;;5035615;28;20492;-79
2022/03/15 01:32:27;;;;;;;19.27;7.32;;;;;;;;;;5038496;28;20136;-78
2022/03/15 01:34:54;;;;;;;17.95;6.75;;;;;;;;;;5035831;28;20444;-77
2022/03/15 01:37:22;;;;;;;14.13;7.00;;;;;;;;;;5034526;28;20049;-79
2022/03/15 01:39:50;;;;;;;24.45;8.00;;;;;;;;;;5036340;28;20191;-79
2022/03/15 01:42:17;;;;;;;23.95;8.95;;;;;;;;;;5036928;28;20052;-80
2022/03/15 01:44:46;;;;;;;16.42;7.57;;;;;;;;;;5038800;28;20698;-80
2022/03/15 01:47:15;;;;;;;42.97;9.77;;;;;;;;;;5035520;28;20179;-80
2022/03/15 01:49:42;;;;;;;27.98;9.07;;;;;;;;;;5035204;28;20324;-78
2022/03/15 01:52:12;;;;;;;23.15;9.50;;;;;;;;;;5029348;28;20053;-80
2022/03/15 01:54:41;;;;;;;24.48;9.23;;;;;;;;;;5035105;28;20191;-78
2022/03/15 01:57:11;;;;;;;23.25;10.68;;;;;;;;;;5035808;28;20099;-79
2022/03/15 01:59:40;;;;;;;27.15;10.15;;;;;;;;;;5034885;28;20053;-79
2022/03/15 02:02:07;;;;;;;31.05;12.57;;;;;;;;;;5035604;28;20508;-80
2022/03/15 02:04:37;;;;;;;27.83;12.00;;;;;;;;;;5038482;28;20061;-79
2022/03/15 02:07:05;;;;;;;31.67;11.93;;;;;;;;;;5037773;28;20044;-78
2022/03/15 02:09:33;;;;;;;24.77;11.25;;;;;;;;;;5032688;28;20214;-79
2022/03/15 02:12:01;;;;;;;25.50;11.23;;;;;;;;;;5033058;28;20117;-81
2022/03/15 02:14:29;;;;;;;20.75;12.25;;;;;;;;;;5036949;28;20052;-79
2022/03/15 02:16:56;;;;;;;30.98;12.40;;;;;;;;;;5041311;28;20049;-79
2022/03/15 02:19:24;;;;;;;29.38;12.75;;;;;;;;;;5039711;28;20277;-79
2022/03/15 02:21:57;;;;;;;28.98;12.88;;;;;;;;;;5039752;28;20076;-79
2022/03/15 02:24:25;;;;;;;31.90;13.32;;;;;;;;;;5040845;28;20142;-79
2022/03/15 02:26:52;;;;;;;34.35;14.10;;;;;;;;;;5040965;28;20045;-79
2022/03/15 02:29:20;;;;;;;26.15;12.70;;;;;;;;;;5038421;28;20057;-80
2022/03/15 02:31:49;;;;;;;32.60;13.77;;;;;;;;;;5039808;28;20053;-78
2022/03/15 02:34:18;;;;;;;34.65;13.50;;;;;;;;;;5038085;28;20053;-80
2022/03/15 02:36:45;;;;;;;29.63;14.68;;;;;;;;;;5041070;28;20049;-80
2022/03/15 02:39:14;;;;;;;29.42;13.00;;;;;;;;;;5038145;28;20053;-80
2022/03/15 02:41:42;;;;;;;28.98;11.88;;;;;;;;;;5037869;28;20071;-79
2022/03/15 02:44:11;;;;;;;40.17;14.65;;;;;;;;;;5037557;28;20041;-78
2022/03/15 02:46:39;;;;;;;30.23;12.93;;;;;;;;;;5037813;28;20045;-80
2022/03/15 02:49:09;;;;;;;32.67;13.02;;;;;;;;;;5037438;28;20045;-80
2022/03/15 02:52:00;;;;;;;29.02;12.88;;;;;;;;;;5040393;28;20056;-79
2022/03/15 02:54:29;;;;;;;31.13;14.00;;;;;;;;;;5033764;28;20049;-79
2022/03/15 02:56:57;;;;;;;28.42;12.52;;;;;;;;;;5037976;28;20507;-79
2022/03/15 02:59:27;;;;;;;28.80;12.55;;;;;;;;;;5037791;28;20081;-80
2022/03/15 03:01:56;;;;;;;25.65;12.27;;;;;;;;;;5041324;28;20045;-80
2022/03/15 03:04:24;;;;;;;31.50;13.93;;;;;;;;;;5037708;28;20087;-79
2022/03/15 03:06:51;;;;;;;36.10;15.50;;;;;;;;;;5044048;28;20146;-80
2022/03/15 03:09:19;;;;;;;34.40;15.95;;;;;;;;;;5041623;28;20124;-79
2022/03/15 03:11:48;;;;;;;31.40;14.38;;;;;;;;;;5042078;28;20080;-79
2022/03/15 03:14:21;;;;;;;34.17;13.80;;;;;;;;;;5040984;28;20072;-80
2022/03/15 03:16:48;;;;;;;28.15;14.57;;;;;;;;;;5036863;28;20050;-80
2022/03/15 03:19:16;;;;;;;33.40;13.82;;;;;;;;;;5037526;28;20142;-80
2022/03/15 03:21:45;;;;;;;33.08;12.85;;;;;;;;;;5037015;28;20394;-78
2022/03/15 03:24:19;;;;;;;32.75;13.63;;;;;;;;;;5037001;28;20096;-80
2022/03/15 03:26:49;;;;;;;28.92;15.25;;;;;;;;;;5035281;28;20060;-80
2022/03/15 03:29:16;;;;;;;36.20;14.10;;;;;;;;;;5036733;28;20049;-80
2022/03/15 03:31:44;;;;;;;32.33;14.68;;;;;;;;;;5031425;28;20071;-80
2022/03/15 03:34:12;;;;;;;40.15;15.60;;;;;;;;;;5035186;28;20075;-80
2022/03/15 03:36:40;;;;;;;34.85;15.15;;;;;;;;;;5039147;28;20385;-79
2022/03/15 03:39:27;;;;;;;30.05;14.00;;;;;;;;;;5036057;28;20273;-80
2022/03/15 03:41:57;;;;;;;28.92;14.02;;;;;;;;;;5033363;28;20041;-80
2022/03/15 03:44:25;;;;;;;38.70;15.18;;;;;;;;;;5038915;28;20037;-81
2022/03/15 03:46:52;;;;;;;28.63;15.65;;;;;;;;;;5035262;28;20048;-79
2022/03/15 03:49:20;;;;;;;35.42;14.05;;;;;;;;;;5036455;28;20052;-79
2022/03/15 03:51:48;;;;;;;28.95;13.45;;;;;;;;;;5035889;28;20463;-80
2022/03/15 03:54:15;;;;;;;36.47;14.15;;;;;;;;;;5032331;28;20500;-79
2022/03/15 03:56:43;;;;;;;29.88;14.40;;;;;;;;;;5036717;28;21627;-78
2022/03/15 03:59:12;;;;;;;26.52;13.82;;;;;;;;;;5034416;28;20140;-80
2022/03/15 04:01:40;;;;;;;32.95;14.93;;;;;;;;;;5037984;28;20084;-80
2022/03/15 04:04:09;;;;;;;31.40;15.15;;;;;;;;;;5034508;28;20044;-79
2022/03/15 04:06:38;;;;;;;33.60;14.98;;;;;;;;;;5032223;28;20065;-79
2022/03/15 04:09:06;;;;;;;31.80;13.82;;;;;;;;;;5036746;28;20053;-79
2022/03/15 04:11:34;;;;;;;29.33;13.60;;;;;;;;;;5034277;28;20164;-79
2022/03/15 04:14:03;;;;;;;34.22;14.05;;;;;;;;;;5037384;28;20037;-79
2022/03/15 04:16:32;;;;;;;29.33;13.30;;;;;;;;;;5036761;28;20266;-78
2022/03/15 04:19:00;;;;;;;35.70;14.90;;;;;;;;;;5031927;28;20061;-79
2022/03/15 04:21:28;;;;;;;33.80;15.68;;;;;;;;;;5033142;28;20053;-78
2022/03/15 04:23:56;;;;;;;30.23;14.70;;;;;;;;;;5037786;28;20398;-77
2022/03/15 04:26:25;;;;;;;34.67;15.40;;;;;;;;;;5035432;28;20053;-78
2022/03/15 04:28:52;;;;;;;28.88;14.30;;;;;;;;;;5034485;28;20072;-81
2022/03/15 04:31:20;;;;;;;39.70;17.20;;;;;;;;;;5034551;28;20048;-79
2022/03/15 04:33:50;;;;;;;36.75;16.85;;;;;;;;;;5033165;28;20168;-79
2022/03/15 04:36:18;;;;;;;33.88;14.45;;;;;;;;;;5037534;28;20049;-80
2022/03/15 04:38:46;;;;;;;36.72;16.88;;;;;;;;;;5034000;28;20052;-79
2022/03/15 04:41:14;;;;;;;34.63;16.00;;;;;;;;;;5034033;28;20104;-79
2022/03/15 04:43:41;;;;;;;32.65;15.85;;;;;;;;;;5034788;28;20430;-79
2022/03/15 04:46:10;;;;;;;33.65;15.85;;;;;;;;;;5034808;28;20633;-78
2022/03/15 04:49:03;;;;;;;35.53;17.33;;;;;;;;;;5033807;28;20060;-79
2022/03/15 04:51:31;;;;;;;34.63;16.52;;;;;;;;;;5032345;28;20148;-79
2022/03/15 04:53:59;;;;;;;26.92;14.00;;;;;;;;;;5032610;28;20364;-79
2022/03/15 04:56:26;;;;;;;35.30;14.80;;;;;;;;;;5033592;28;20076;-79
2022/03/15 04:58:54;;;;;;;32.78;14.70;;;;;;;;;;5033669;28;20358;-80
2022/03/15 05:01:22;;;;;;;30.23;14.73;;;;;;;;;;5037864;28;20057;-78
2022/03/15 05:03:50;;;;;;;36.47;16.70;;;;;;;;;;5035464;28;20053;-78
2022/03/15 05:06:20;;;;;;;34.45;14.45;;;;;;;;;;5036912;28;20049;-78
2022/03/15 05:08:49;;;;;;;32.80;15.32;;;;;;;;;;5033550;28;20132;-77
2022/03/15 05:11:18;;;;;;;32.97;14.38;;;;;;;;;;5034765;28;20101;-77
2022/03/15 05:13:47;;;;;;;35.78;15.93;;;;;;;;;;5039859;28;20053;-78
2022/03/15 05:16:17;;;;;;;31.70;14.90;;;;;;;;;;5032384;28;20041;-77
2022/03/15 05:18:46;;;;;;;29.02;15.90;;;;;;;;;;5036870;28;20132;-77
2022/03/15 05:21:15;;;;;;;37.88;17.25;;;;;;;;;;5034658;28;20773;-77
2022/03/15 05:23:44;;;;;;;33.58;15.68;;;;;;;;;;5034058;28;20045;-78
2022/03/15 05:26:12;;;;;;;31.38;16.30;;;;;;;;;;5036355;28;20056;-77
2022/03/15 05:28:40;;;;;;;31.55;15.65;;;;;;;;;;5036423;28;20493;-78
2022/03/15 05:31:07;;;;;;;37.03;17.58;;;;;;;;;;5035786;28;20485;-77
2022/03/15 05:33:35;;;;;;;36.83;17.95;;;;;;;;;;5037202;28;20061;-76
2022/03/15 05:36:04;;;;;;;33.85;17.08;;;;;;;;;;5037453;28;20140;-78
2022/03/15 05:38:32;;;;;;;37.92;16.98;;;;;;;;;;5032613;28;20362;-78
2022/03/15 05:41:01;;;;;;;27.60;16.33;;;;;;;;;;5034616;28;20053;-77
2022/03/15 05:43:49;;;;;;;32.45;16.77;;;;;;;;;;5037612;28;20548;-77
2022/03/15 05:46:17;;;;;;;36.35;18.38;;;;;;;;;;5033829;28;20098;-77
2022/03/15 05:48:46;;;;;;;34.20;17.13;;;;;;;;;;5033905;28;20504;-76
2022/03/15 05:51:13;;;;;;;41.33;19.23;;;;;;;;;;5039467;28;20486;-77
2022/03/15 05:53:41;;;;;;;35.92;18.27;;;;;;;;;;5034706;28;20037;-77
2022/03/15 05:56:10;;;;;;;41.50;19.35;;;;;;;;;;5041344;28;20070;-78
2022/03/15 05:58:38;;;;;;;42.40;20.08;;;;;;;;;;5037120;28;20080;-77
2022/03/15 06:01:05;;;;;;;38.63;19.35;;;;;;;;;;5042341;28;20528;-76
2022/03/15 06:03:33;;;;;;;37.78;19.42;;;;;;;;;;5035461;28;20056;-70
2022/03/15 06:06:01;;;;;;;39.85;19.50;;;;;;;;;;5036040;28;20486;-70
2022/03/15 06:08:29;;;;;;;37.90;19.90;;;;;;;;;;5035711;28;20057;-71
2022/03/15 06:10:57;;;;;;;42.28;20.55;;;;;;;;;;5037343;28;20049;-70
2022/03/15 06:13:26;;;;;;;40.42;20.58;;;;;;;;;;5037287;28;20087;-70
2022/03/15 06:15:54;;;;;;;46.22;21.40;;;;;;;;;;5035370;28;20059;-70
2022/03/15 06:18:22;;;;;;;41.63;20.85;;;;;;;;;;5036155;28;20059;-70
2022/03/15 06:20:50;;;;;;;44.63;20.77;;;;;;;;;;5034090;28;20164;-70
2022/03/15 06:23:23;;;;;;;44.35;20.90;;;;;;;;;;5036286;28;20144;-70
2022/03/15 06:25:51;;;;;;;37.15;20.55;;;;;;;;;;5035550;28;20524;-70
2022/03/15 06:28:19;;;;;;;44.72;21.20;;;;;;;;;;5036897;28;20063;-71
2022/03/15 06:30:49;;;;;;;40.80;19.90;;;;;;;;;;5036357;28;20167;-70
2022/03/15 06:33:17;;;;;;;42.33;21.58;;;;;;;;;;5034959;28;20341;-70
2022/03/15 06:35:46;;;;;;;47.05;21.77;;;;;;;;;;5037100;28;20432;-70
2022/03/15 06:38:13;;;;;;;41.65;20.25;;;;;;;;;;5037076;28;20469;-71
2022/03/15 06:40:42;;;;;;;43.45;21.23;;;;;;;;;;5035516;28;20662;-71
2022/03/15 06:43:12;;;;;;;46.60;22.52;;;;;;;;;;5036235;28;20513;-70
2022/03/15 06:45:41;;;;;;;45.45;21.08;;;;;;;;;;5033668;28;20167;-71
2022/03/15 06:48:10;;;;;;;52.15;22.67;;;;;;;;;;5036070;28;20068;-71
2022/03/15 06:50:39;;;;;;;40.60;20.92;;;;;;;;;;5035121;28;20053;-71
2022/03/15 06:53:08;;;;;;;41.17;20.85;;;;;;;;;;5037126;28;20045;-71
2022/03/15 06:55:36;;;;;;;40.47;20.40;;;;;;;;;;5039075;28;20635;-71
2022/03/15 06:58:04;;;;;;;41.75;19.75;;;;;;;;;;5035537;28;20547;-77
2022/03/15 07:00:32;;;;;;;45.55;22.48;;;;;;;;;;5038379;28;20045;-78
2022/03/15 07:02:59;;;;;;;42.35;20.98;;;;;;;;;;5036213;28;20092;-78
2022/03/15 07:05:29;;;;;;;43.25;21.23;;;;;;;;;;5035482;28;20045;-78
2022/03/15 07:07:56;;;;;;;45.75;20.83;;;;;;;;;;5034381;28;20049;-77
2022/03/15 07:10:24;;;;;;;44.72;19.92;;;;;;;;;;5038446;28;20049;-77
2022/03/15 07:12:52;;;;;;;39.55;19.77;;;;;;;;;;5038666;28;20045;-78
2022/03/15 07:15:20;;;;;;;39.25;20.33;;;;;;;;;;5038562;28;20049;-78
2022/03/15 07:17:52;;;;;;;47.42;21.70;;;;;;;;;;5036355;28;20045;-77
2022/03/15 07:20:21;;;;;;;47.25;21.88;;;;;;;;;;5036309;28;20053;-77
2022/03/15 07:23:14;;;;;;;40.03;20.48;;;;;;;;;;5041546;28;20051;-78
2022/03/15 07:26:07;;;;;;;38.47;19.88;;;;;;;;;;5035215;28;20087;-77
2022/03/15 07:28:37;;;;;;;40.80;20.45;;;;;;;;;;5032328;28;20129;-78
2022/03/15 07:31:05;;;;;;;39.97;19.15;;;;;;;;;;5039259;28;20053;-77
2022/03/15 07:33:33;;;;;;;40.78;20.55;;;;;;;;;;5038194;28;20055;-78
2022/03/15 07:36:01;;;;;;;43.33;21.52;;;;;;;;;;5044489;28;20123;-77
2022/03/15 07:38:33;;;;;;;40.88;19.30;;;;;;;;;;5037925;28;20065;-77
2022/03/15 07:41:01;;;;;;;37.10;19.85;;;;;;;;;;5032416;28;20067;-76
2022/03/15 07:43:28;;;;;;;36.55;19.98;;;;;;;;;;5036752;28;20311;-77
2022/03/15 07:45:56;;;;;;;39.65;21.02;;;;;;;;;;5034740;28;20052;-78
2022/03/15 07:48:24;;;;;;;41.25;22.08;;;;;;;;;;5036387;28;20095;-77
2022/03/15 07:50:52;;;;;;;37.42;19.30;;;;;;;;;;5034459;28;20041;-79
2022/03/15 07:53:23;;;;;;;43.05;19.20;;;;;;;;;;5036802;28;20053;-78
2022/03/15 07:56:17;;;;;;;39.10;20.23;;;;;;;;;;5040167;28;20271;-78
2022/03/15 07:58:44;;;;;;;47.38;21.45;;;;;;;;;;5036684;28;20048;-77
2022/03/15 08:01:13;;;;;;;41.90;20.42;;;;;;;;;;5033632;28;20492;-78
2022/03/15 08:03:40;;;;;;;44.80;21.42;;;;;;;;;;5034846;28;20054;-78
2022/03/15 08:06:08;;;;;;;45.47;21.33;;;;;;;;;;5038085;28;20053;-79
2022/03/15 08:08:36;;;;;;;37.95;18.65;;;;;;;;;;5035933;28;20623;-78
2022/03/15 08:11:07;;;;;;;39.25;18.85;;;;;;;;;;5038468;28;20052;-78
2022/03/15 08:13:36;;;;;;;41.83;22.42;;;;;;;;;;5032563;28;20040;-77
2022/03/15 08:16:04;;;;;;;42.15;19.40;;;;;;;;;;5035951;28;20052;-78
2022/03/15 08:18:32;;;;;;;43.47;21.58;;;;;;;;;;5033071;28;20056;-78
2022/03/15 08:20:59;;;;;;;44.40;21.13;;;;;;;;;;5035736;28;20045;-78
2022/03/15 08:23:27;;;;;;;40.92;20.73;;;;;;;;;;5034230;28;20495;-78
2022/03/15 08:25:56;;;;;;;41.67;21.00;;;;;;;;;;5033565;28;20157;-78
2022/03/15 08:28:24;;;;;;;37.70;20.23;;;;;;;;;;5036944;28;20049;-78
2022/03/15 08:30:54;;;;;;;45.22;22.83;;;;;;;;;;5034242;28;20104;-78
2022/03/15 08:33:23;;;;;;;41.35;20.60;;;;;;;;;;5034203;28;20107;-77
2022/03/15 08:35:51;;;;;;;43.95;21.55;;;;;;;;;;5033012;28;20061;-79
2022/03/15 08:38:19;;;;;;;43.70;22.58;;;;;;;;;;5036511;28;20053;-80
2022/03/15 08:40:47;;;;;;;44.35;21.08;;;;;;;;;;5034301;28;20045;-78
2022/03/15 08:43:16;;;;;;;37.85;19.48;;;;;;;;;;5034806;28;20144;-77
2022/03/15 08:45:43;;;;;;;43.67;20.40;;;;;;;;;;5033468;28;20461;-78
2022/03/15 08:48:13;;;;;;;41.28;22.92;;;;;;;;;;5029403;28;20044;-78
2022/03/15 08:50:41;;;;;;;44.97;20.15;;;;;;;;;;5033315;28;20051;-77
2022/03/15 08:53:09;;;;;;;42.88;21.20;;;;;;;;;;5027656;28;20088;-77
2022/03/15 08:55:37;;;;;;;41.28;20.90;;;;;;;;;;5032156;28;20053;-77
2022/03/15 08:58:05;;;;;;;39.47;19.60;;;;;;;;;;5033250;28;20132;-78
2022/03/15 09:00:33;;;;;;;41.50;21.02;;;;;;;;;;5029519;28;20053;-78
2022/03/15 09:03:01;;;;;;;40.67;21.45;;;;;;;;;;5033699;28;20079;-78
2022/03/15 09:05:31;;;;;;;36.05;20.20;;;;;;;;;;5030652;28;20065;-71
2022/03/15 09:07:59;;;;;;;38.28;19.77;;;;;;;;;;5032562;28;20478;-71
2022/03/15 09:10:26;;;;;;;44.17;21.40;;;;;;;;;;5029592;28;20470;-71
2022/03/15 09:12:54;;;;;;;39.13;20.00;;;;;;;;;;5031078;28;20095;-71
2022/03/15 09:15:25;;;;;;;40.10;21.00;;;;;;;;;;5029162;28;20111;-71
2022/03/15 09:17:53;;;;;;;37.22;19.50;;;;;;;;;;5030147;28;20143;-70
2022/03/15 09:20:23;;;;;;;38.42;18.90;;;;;;;;;;5031264;28;20045;-71
2022/03/15 09:22:53;;;;;;;38.60;20.33;;;;;;;;;;5031922;28;20060;-71
2022/03/15 09:25:20;;;;;;;37.75;18.50;;;;;;;;;;5030291;28;20045;-71
2022/03/15 09:27:48;;;;;;;37.03;19.65;;;;;;;;;;5033740;28;20145;-71
2022/03/15 09:30:16;;;;;;;36.08;19.65;;;;;;;;;;5031836;28;20145;-71
2022/03/15 09:32:44;;;;;;;32.28;19.17;;;;;;;;;;5032504;28;20049;-71
2022/03/15 09:35:13;;;;;;;32.85;19.10;;;;;;;;;;5032401;28;20053;-70
2022/03/15 09:37:45;;;;;;;35.30;18.98;;;;;;;;;;5032044;28;20095;-72
2022/03/15 09:40:15;;;;;;;39.35;19.70;;;;;;;;;;5029493;28;20753;-71
2022/03/15 09:42:44;;;;;;;33.83;18.05;;;;;;;;;;5030130;28;20140;-71
2022/03/15 09:45:11;;;;;;;33.03;18.52;;;;;;;;;;5031579;28;20055;-71
2022/03/15 09:47:41;;;;;;;36.13;17.98;;;;;;;;;;5033883;28;20655;-71
2022/03/15 09:50:09;;;;;;;33.15;18.48;;;;;;;;;;5030580;28;20073;-71
2022/03/15 09:52:38;;;;;;;32.15;18.65;;;;;;;;;;5029887;28;20076;-71
2022/03/15 09:55:07;;;;;;;29.70;16.77;;;;;;;;;;5035356;28;20057;-71
2022/03/15 09:57:41;;;;;;;35.22;21.00;;;;;;;;;;5032369;28;20045;-71
2022/03/15 10:00:10;;;;;;;36.00;19.50;;;;;;;;;;5027530;28;20041;-71
2022/03/15 10:02:39;;;;;;;32.78;19.23;;;;;;;;;;5030226;28;20056;-72
2022/03/15 10:05:07;;;;;;;36.63;19.42;;;;;;;;;;5028785;28;20053;-71
2022/03/15 10:07:36;;;;;;;40.80;20.13;;;;;;;;;;5029710;28;20085;-70
2022/03/15 10:10:05;;;;;;;30.95;18.15;;;;;;;;;;5031726;28;20060;-70
2022/03/15 10:12:32;;;;;;;31.67;17.05;;;;;;;;;;5032451;28;20084;-77
2022/03/15 10:15:10;;;;;;;35.83;17.33;;;;;;;;;;5036040;28;20144;-77
2022/03/15 10:17:42;;;;;;;28.13;15.18;;;;;;;;;;5036153;28;20102;-78
2022/03/15 10:20:10;;;;;;;26.08;14.73;;;;;;;;;;5035988;28;20518;-78
2022/03/15 10:22:38;;;;;;;25.85;15.13;;;;;;;;;;5034396;28;20262;-78
2022/03/15 10:25:06;;;;;;;28.42;13.73;;;;;;;;;;5035433;28;20045;-78
2022/03/15 10:27:35;;;;;;;28.13;13.40;;;;;;;;;;5029880;28;20049;-71
2022/03/15 10:30:05;;;;;;;23.23;12.23;;;;;;;;;;5032573;28;20334;-71
2022/03/15 10:32:34;;;;;;;22.08;11.40;;;;;;;;;;5027113;28;20057;-71
2022/03/15 10:35:06;;;;;;;24.40;12.82;;;;;;;;;;5030494;28;20501;-72
2022/03/15 10:37:35;;;;;;;25.50;12.52;;;;;;;;;;5035349;28;20450;-71
2022/03/15 10:40:03;;;;;;;21.50;11.10;;;;;;;;;;5032164;28;20049;-71
2022/03/15 10:42:31;;;;;;;27.55;12.63;;;;;;;;;;5034066;28;20053;-71
2022/03/15 10:44:59;;;;;;;23.48;11.63;;;;;;;;;;5036564;28;20485;-72
2022/03/15 10:47:28;;;;;;;22.05;10.95;;;;;;;;;;5030022;28;20240;-71
2022/03/15 10:49:59;;;;;;;24.65;11.55;;;;;;;;;;5036960;28;20045;-72
2022/03/15 10:52:31;;;;;;;23.20;11.73;;;;;;;;;;5033414;28;20062;-72
2022/03/15 10:55:09;;;;;;;20.95;11.57;;;;;;;;;;5035405;28;20068;-71
2022/03/15 10:57:43;;;;;;;19.45;10.73;;;;;;;;;;5039313;28;20053;-70
2022/03/15 11:00:12;;;;;;;21.80;11.52;;;;;;;;;;5036924;28;20580;-72
2022/03/15 11:02:43;;;;;;;19.75;10.60;;;;;;;;;;5032443;28;20351;-70
2022/03/15 11:05:11;;;;;;;20.83;10.40;;;;;;;;;;5031256;28;20076;-70
2022/03/15 11:07:39;;;;;;;19.05;10.45;;;;;;;;;;5035789;28;20466;-71
2022/03/15 11:10:11;;;;;;;22.60;10.32;;;;;;;;;;5035461;28;20057;-72
2022/03/15 11:12:53;;;;;;;18.45;11.30;;;;;;;;;;5031684;28;20490;-72
2022/03/15 11:15:28;;;;;;;26.80;13.20;;;;;;;;;;5033436;28;20507;-72
2022/03/15 11:18:00;;;;;;;19.00;11.20;;;;;;;;;;5033201;28;20131;-70
2022/03/15 11:20:29;;;;;;;20.17;12.02;;;;;;;;;;5039123;28;20069;-70
2022/03/15 11:22:59;;;;;;;20.08;9.00;;;;;;;;;;5035232;28;20132;-71
2022/03/15 11:25:33;;;;;;;20.13;11.65;;;;;;;;;;5033099;28;20049;-70
2022/03/15 11:28:00;;;;;;;23.30;12.52;;;;;;;;;;5032643;28;20348;-71
2022/03/15 11:30:29;;;;;;;21.92;11.55;;;;;;;;;;5033022;28;20045;-71
2022/03/15 11:32:57;;;;;;;18.42;10.43;;;;;;;;;;5034536;28;20057;-72
2022/03/15 11:35:26;;;;;;;16.70;10.85;;;;;;;;;;5033607;28;20049;-72
2022/03/15 11:37:54;;;;;;;21.73;10.50;;;;;;;;;;5038714;28;20045;-72
2022/03/15 11:40:22;;;;;;;16.20;9.63;;;;;;;;;;5032854;28;20051;-72
2022/03/15 11:42:51;;;;;;;20.17;10.65;;;;;;;;;;5037010;28;20091;-72
2022/03/15 11:45:22;;;;;;;17.80;9.85;;;;;;;;;;5033986;28;20136;-72
2022/03/15 11:48:05;;;;;;;20.30;9.65;;;;;;;;;;5034675;28;20055;-72
2022/03/15 11:50:36;;;;;;;15.82;8.52;;;;;;;;;;5034754;28;20060;-72
2022/03/15 11:53:07;;;;;;;14.98;9.25;;;;;;;;;;5031552;28;20134;-72
2022/03/15 11:55:41;;;;;;;17.83;9.55;;;;;;;;;;5032269;28;20144;-71
2022/03/15 11:58:10;;;;;;;17.52;8.75;;;;;;;;;;5033197;28;20071;-72
2022/03/15 12:00:42;;;;;;;16.58;8.40;;;;;;;;;;5032569;28;20055;-71
2022/03/15 12:03:10;;;;;;;14.48;8.18;;;;;;;;;;5036445;28;20701;-73
2022/03/15 12:05:45;;;;;;;17.48;8.55;;;;;;;;;;5034375;28;20191;-72
2022/03/15 12:08:13;;;;;;;14.50;8.20;;;;;;;;;;5034726;28;20040;-72
2022/03/15 12:10:46;;;;;;;15.77;8.40;;;;;;;;;;5033758;28;20132;-72
2022/03/15 12:13:34;;;;;;;17.52;9.77;;;;;;;;;;5033751;28;20068;-72
2022/03/15 12:16:13;;;;;;;18.08;9.07;;;;;;;;;;5033993;28;20051;-72
2022/03/15 12:18:45;;;;;;;20.30;8.88;;;;;;;;;;5032426;28;20537;-72
2022/03/15 12:21:15;;;;;;;18.45;8.98;;;;;;;;;;5030817;28;20091;-73
2022/03/15 12:23:45;;;;;;;19.90;9.95;;;;;;;;;;5034503;28;20063;-73
2022/03/15 12:26:17;;;;;;;15.20;8.85;;;;;;;;;;5035846;28;20064;-72
2022/03/15 12:28:54;;;;;;;20.05;12.20;;;;;;;;;;5032982;28;20131;-73
2022/03/15 12:31:32;;;;;;;18.42;8.93;;;;;;;;;;5033422;28;20140;-72
2022/03/15 12:34:01;;;;;;;19.33;8.10;;;;;;;;;;5035812;28;20061;-72
2022/03/15 12:36:37;;;;;;;12.65;7.15;;;;;;;;;;5032851;28;20462;-73
2022/03/15 12:39:09;;;;;;;15.35;7.72;;;;;;;;;;5032779;28;20106;-73
2022/03/15 12:41:42;;;;;;;12.35;7.25;;;;;;;;;;5034828;28;20061;-75
2022/03/15 12:44:11;;;;;;;18.27;7.22;;;;;;;;;;5031096;28;20228;-74
2022/03/15 12:46:39;;;;;;;14.55;7.20;;;;;;;;;;5034683;28;20084;-72
2022/03/15 12:49:07;;;;;;;13.50;6.40;;;;;;;;;;5033589;28;20103;-72
2022/03/15 12:51:37;;;;;;;12.40;6.53;;;;;;;;;;5028878;28;20067;-72
2022/03/15 12:54:06;;;;;;;12.57;7.10;;;;;;;;;;5029658;28;20045;-72
2022/03/15 12:56:41;;;;;;;15.18;6.95;;;;;;;;;;5034423;28;20045;-72
2022/03/15 12:59:16;;;;;;;15.93;8.05;;;;;;;;;;5031853;28;20132;-72
2022/03/15 13:01:46;;;;;;;14.73;7.18;;;;;;;;;;5031712;28;20136;-71
2022/03/15 13:04:25;;;;;;;14.38;5.72;;;;;;;;;;5030917;28;20076;-71
2022/03/15 13:06:57;;;;;;;13.10;6.20;;;;;;;;;;5032111;28;20057;-72
2022/03/15 13:09:25;;;;;;;11.75;6.10;;;;;;;;;;5034523;28;20084;-71
2022/03/15 13:11:55;;;;;;;15.20;7.53;;;;;;;;;;5030075;28;20051;-71
2022/03/15 13:14:23;;;;;;;13.63;7.75;;;;;;;;;;5032022;28;20492;-71
2022/03/15 13:16:52;;;;;;;13.95;7.40;;;;;;;;;;5030907;28;20422;-71
2022/03/15 13:19:27;;;;;;;12.45;7.35;;;;;;;;;;5034120;28;20060;-71
2022/03/15 13:21:56;;;;;;;15.90;7.53;;;;;;;;;;5028483;28;20135;-71
2022/03/15 13:24:29;;;;;;;13.85;7.55;;;;;;;;;;5034836;28;20489;-71
2022/03/15 13:26:58;;;;;;;12.75;7.07;;;;;;;;;;5034256;28;20040;-71
2022/03/15 13:29:29;;;;;;;19.52;8.40;;;;;;;;;;5033381;28;20051;-71
2022/03/15 13:31:58;;;;;;;15.68;6.85;;;;;;;;;;5034577;28;20061;-72
2022/03/15 13:34:27;;;;;;;12.95;6.80;;;;;;;;;;5031028;28;20139;-71
2022/03/15 13:37:00;;;;;;;13.63;6.70;;;;;;;;;;5031398;28;21107;-70
2022/03/15 13:39:28;;;;;;;13.32;6.70;;;;;;;;;;5031567;28;20072;-70
2022/03/15 13:41:56;;;;;;;18.27;7.93;;;;;;;;;;5030877;28;20053;-70
2022/03/15 13:44:25;;;;;;;16.67;8.38;;;;;;;;;;5034127;28;20118;-70
2022/03/15 13:47:03;;;;;;;17.00;9.63;;;;;;;;;;5033117;28;20104;-70
2022/03/15 13:49:31;;;;;;;19.45;10.15;;;;;;;;;;5036021;28;20076;-70
2022/03/15 13:52:05;;;;;;;17.85;11.57;;;;;;;;;;5027542;28;20533;-70
2022/03/15 13:54:35;;;;;;;20.15;12.75;;;;;;;;;;5027430;28;20055;-71
2022/03/15 13:57:04;;;;;;;19.70;12.05;;;;;;;;;;5033173;28;20061;-71
2022/03/15 13:59:32;;;;;;;21.13;12.20;;;;;;;;;;5028550;28;20485;-71
2022/03/15 14:02:00;;;;;;;16.20;10.23;;;;;;;;;;5032147;28;20454;-70
2022/03/15 14:04:29;;;;;;;19.45;10.63;;;;;;;;;;5033700;28;20537;-71
2022/03/15 14:07:00;;;;;;;19.80;11.10;;;;;;;;;;5031539;28;20214;-70
2022/03/15 14:09:30;;;;;;;20.05;11.73;;;;;;;;;;5031856;28;20051;-71
2022/03/15 14:12:08;;;;;;;19.02;12.23;;;;;;;;;;5033364;28;20089;-71
2022/03/15 14:14:40;;;;;;;19.17;12.35;;;;;;;;;;5033397;28;20404;-71
2022/03/15 14:17:08;;;;;;;26.00;12.40;;;;;;;;;;5032283;28;20057;-71
2022/03/15 14:19:44;;;;;;;21.02;13.27;;;;;;;;;;5035053;28;20393;-70
2022/03/15 14:22:12;;;;;;;27.60;13.80;;;;;;;;;;5034855;28;20477;-70
2022/03/15 14:24:45;;;;;;;25.33;15.70;;;;;;;;;;5035547;28;20365;-70
2022/03/15 14:27:13;;;;;;;28.73;15.52;;;;;;;;;;5034464;28;20124;-70
2022/03/15 14:29:47;;;;;;;27.98;16.13;;;;;;;;;;5031797;28;20787;-70
2022/03/15 14:32:14;;;;;;;26.92;15.68;;;;;;;;;;5032899;28;20453;-71
2022/03/15 14:34:51;;;;;;;28.02;15.90;;;;;;;;;;5035007;28;20049;-71